createdAt,value
2023-09-23T00:00:06.287Z,257
2023-09-23T00:00:37.747Z,253
2023-09-23T00:01:08.676Z,253
2023-09-23T00:01:41.659Z,253
2023-09-23T00:02:12.958Z,252
2023-09-23T00:02:45.792Z,252
2023-09-23T00:03:16.673Z,252
2023-09-23T00:03:49.767Z,252
2023-09-23T00:04:20.709Z,252
2023-09-23T00:04:53.716Z,250
2023-09-23T00:05:25.040Z,252
2023-09-23T00:05:57.644Z,250
2023-09-23T00:06:28.547Z,252
2023-09-23T00:07:01.689Z,250
2023-09-23T00:07:32.776Z,250
2023-09-23T00:08:05.553Z,220
2023-09-23T00:08:36.682Z,247
2023-09-23T00:09:09.650Z,251
2023-09-23T00:09:40.628Z,247
2023-09-23T00:10:13.784Z,247
2023-09-23T00:10:44.769Z,247
2023-09-23T00:11:17.616Z,261
2023-09-23T00:11:48.628Z,255
2023-09-23T00:12:21.738Z,257
2023-09-23T00:12:52.778Z,255
2023-09-23T00:13:25.400Z,251
2023-09-23T00:13:56.658Z,251
2023-09-23T00:14:12.938Z,251
2023-09-23T00:14:44.604Z,255
2023-09-23T00:15:17.776Z,255
2023-09-23T00:15:48.845Z,251
2023-09-23T00:16:20.585Z,244
2023-09-23T00:16:53.688Z,255
2023-09-23T00:17:24.802Z,260
2023-09-23T00:17:57.692Z,260
2023-09-23T00:18:28.615Z,260
2023-09-23T00:19:01.740Z,260
2023-09-23T00:19:32.733Z,260
2023-09-23T00:20:05.631Z,260
2023-09-23T00:20:36.645Z,239
2023-09-23T00:21:09.574Z,239
2023-09-23T00:21:40.603Z,256
2023-09-23T00:22:13.555Z,256
2023-09-23T00:22:44.677Z,260
2023-09-23T00:23:17.604Z,260
2023-09-23T00:23:48.578Z,257
2023-09-23T00:24:21.417Z,256
2023-09-23T00:24:52.787Z,261
2023-09-23T00:25:25.748Z,251
2023-09-23T00:25:56.814Z,259
2023-09-23T00:26:29.426Z,256
2023-09-23T00:27:00.692Z,251
2023-09-23T00:27:33.334Z,243
2023-09-23T00:28:04.654Z,243
2023-09-23T00:28:37.409Z,243
2023-09-23T00:29:08.615Z,259
2023-09-23T00:29:41.438Z,259
2023-09-23T00:30:13.740Z,259
2023-09-23T00:30:45.523Z,259
2023-09-23T00:31:16.626Z,259
2023-09-23T00:31:49.619Z,241
2023-09-23T00:32:20.840Z,265
2023-09-23T00:32:53.517Z,262
2023-09-23T00:33:24.659Z,248
2023-09-23T00:33:57.644Z,257
2023-09-23T00:34:28.528Z,240
2023-09-23T00:35:02.265Z,262
2023-09-23T00:35:32.674Z,262
2023-09-23T00:36:05.621Z,258
2023-09-23T00:36:36.643Z,258
2023-09-23T00:37:09.428Z,258
2023-09-23T00:37:40.677Z,258
2023-09-23T00:38:13.746Z,262
2023-09-23T00:38:44.777Z,258
2023-09-23T00:39:17.486Z,258
2023-09-23T00:39:48.777Z,258
2023-09-23T00:40:21.935Z,258
2023-09-23T00:40:52.748Z,258
2023-09-23T00:41:25.533Z,257
2023-09-23T00:41:56.583Z,253
2023-09-23T00:42:29.590Z,242
2023-09-23T00:43:00.822Z,248
2023-09-23T00:43:33.476Z,218
2023-09-23T00:44:04.657Z,226
2023-09-23T00:44:37.467Z,226
2023-09-23T00:45:09.975Z,226
2023-09-23T00:45:41.833Z,226
2023-09-23T00:46:12.758Z,226
2023-09-23T00:46:45.655Z,226
2023-09-23T00:47:16.702Z,226
2023-09-23T00:47:49.500Z,226
2023-09-23T00:48:20.627Z,226
2023-09-23T00:48:53.527Z,226
2023-09-23T00:49:24.579Z,226
2023-09-23T00:49:57.711Z,220
2023-09-23T00:50:29.058Z,200
2023-09-23T00:51:01.364Z,243
2023-09-23T00:51:32.614Z,249
2023-09-23T00:52:05.618Z,249
2023-09-23T00:52:36.895Z,229
2023-09-23T00:53:09.531Z,220
2023-09-23T00:53:40.624Z,220
2023-09-23T00:54:13.718Z,220
2023-09-23T00:54:44.759Z,229
2023-09-23T00:55:17.622Z,234
2023-09-23T00:55:48.707Z,221
2023-09-23T00:56:21.339Z,221
2023-09-23T00:56:52.576Z,221
2023-09-23T00:57:25.782Z,221
2023-09-23T00:57:56.647Z,221
2023-09-23T00:58:29.402Z,221
2023-09-23T00:59:00.706Z,243
2023-09-23T00:59:33.637Z,243
2023-09-23T01:00:06.254Z,243
2023-09-23T01:00:37.493Z,228
2023-09-23T01:01:08.704Z,228
2023-09-23T01:01:41.662Z,228
2023-09-23T01:02:12.669Z,228
2023-09-23T01:02:45.593Z,220
2023-09-23T01:03:16.951Z,220
2023-09-23T01:03:49.469Z,228
2023-09-23T01:04:20.628Z,252
2023-09-23T01:04:53.627Z,252
2023-09-23T01:05:25.186Z,256
2023-09-23T01:05:57.363Z,256
2023-09-23T01:06:28.737Z,252
2023-09-23T01:07:01.814Z,263
2023-09-23T01:07:32.579Z,263
2023-09-23T01:08:05.936Z,263
2023-09-23T01:08:36.692Z,228
2023-09-23T01:09:09.609Z,263
2023-09-23T01:09:40.647Z,263
2023-09-23T01:10:13.968Z,228
2023-09-23T01:10:44.822Z,147
2023-09-23T01:11:17.469Z,253
2023-09-23T01:11:48.635Z,253
2023-09-23T01:12:21.588Z,253
2023-09-23T01:12:52.825Z,263
2023-09-23T01:13:25.538Z,263
2023-09-23T01:13:56.696Z,263
2023-09-23T01:14:29.668Z,270
2023-09-23T01:15:02.169Z,276
2023-09-23T01:15:33.829Z,270
2023-09-23T01:16:04.691Z,253
2023-09-23T01:16:37.927Z,270
2023-09-23T01:17:08.654Z,273
2023-09-23T01:17:41.678Z,260
2023-09-23T01:18:12.768Z,251
2023-09-23T01:18:45.650Z,260
2023-09-23T01:19:16.655Z,255
2023-09-23T01:19:49.801Z,255
2023-09-23T01:20:20.942Z,255
2023-09-23T01:20:53.416Z,260
2023-09-23T01:21:24.740Z,260
2023-09-23T01:21:57.733Z,255
2023-09-23T01:22:28.573Z,254
2023-09-23T01:23:01.725Z,254
2023-09-23T01:23:32.742Z,255
2023-09-23T01:24:05.780Z,255
2023-09-23T01:24:36.563Z,255
2023-09-23T01:25:09.707Z,255
2023-09-23T01:25:40.754Z,251
2023-09-23T01:26:13.546Z,217
2023-09-23T01:26:44.691Z,275
2023-09-23T01:27:17.854Z,279
2023-09-23T01:27:48.719Z,254
2023-09-23T01:28:21.436Z,254
2023-09-23T01:28:52.683Z,246
2023-09-23T01:29:25.754Z,237
2023-09-23T01:29:56.672Z,239
2023-09-23T01:30:13.855Z,239
2023-09-23T01:30:44.675Z,239
2023-09-23T01:31:16.706Z,246
2023-09-23T01:31:48.736Z,245
2023-09-23T01:32:20.838Z,245
2023-09-23T01:32:52.683Z,201
2023-09-23T01:33:24.845Z,201
2023-09-23T01:33:56.693Z,240
2023-09-23T01:34:28.637Z,240
2023-09-23T01:35:01.987Z,237
2023-09-23T01:35:32.755Z,242
2023-09-23T01:36:05.555Z,237
2023-09-23T01:36:36.607Z,237
2023-09-23T01:37:09.722Z,246
2023-09-23T01:37:40.773Z,241
2023-09-23T01:38:13.495Z,241
2023-09-23T01:38:44.963Z,241
2023-09-23T01:39:17.629Z,241
2023-09-23T01:39:48.755Z,250
2023-09-23T01:40:21.896Z,241
2023-09-23T01:40:52.693Z,238
2023-09-23T01:41:25.743Z,242
2023-09-23T01:41:56.649Z,244
2023-09-23T01:42:12.786Z,244
2023-09-23T01:42:44.608Z,244
2023-09-23T01:43:16.687Z,244
2023-09-23T01:43:49.593Z,244
2023-09-23T01:44:20.788Z,244
2023-09-23T01:44:53.386Z,244
2023-09-23T01:45:25.749Z,244
2023-09-23T01:45:57.897Z,234
2023-09-23T01:46:28.667Z,244
2023-09-23T01:47:01.555Z,244
2023-09-23T01:47:32.998Z,244
2023-09-23T01:48:05.799Z,235
2023-09-23T01:48:36.664Z,235
2023-09-23T01:49:09.510Z,243
2023-09-23T01:49:40.779Z,235
2023-09-23T01:50:13.968Z,235
2023-09-23T01:50:44.672Z,217
2023-09-23T01:51:17.951Z,213
2023-09-23T01:51:48.601Z,213
2023-09-23T01:52:21.616Z,239
2023-09-23T01:52:52.769Z,239
2023-09-23T01:53:25.639Z,209
2023-09-23T01:53:56.687Z,213
2023-09-23T01:54:29.925Z,210
2023-09-23T01:55:01.680Z,213
2023-09-23T01:55:33.536Z,213
2023-09-23T01:56:04.683Z,213
2023-09-23T01:56:37.748Z,213
2023-09-23T01:57:08.649Z,213
2023-09-23T01:57:41.547Z,213
2023-09-23T01:58:12.707Z,202
2023-09-23T01:58:46.490Z,202
2023-09-23T01:59:16.695Z,202
2023-09-23T01:59:49.569Z,202
2023-09-23T02:00:22.397Z,202
2023-09-23T02:00:53.514Z,235
2023-09-23T02:01:24.709Z,235
2023-09-23T02:01:57.700Z,206
2023-09-23T02:02:29.008Z,206
2023-09-23T02:03:01.727Z,222
2023-09-23T02:03:32.798Z,235
2023-09-23T02:04:05.661Z,235
2023-09-23T02:04:36.628Z,235
2023-09-23T02:05:09.783Z,235
2023-09-23T02:05:40.784Z,228
2023-09-23T02:06:13.810Z,228
2023-09-23T02:06:44.674Z,228
2023-09-23T02:07:17.770Z,228
2023-09-23T02:07:48.846Z,228
2023-09-23T02:08:21.516Z,228
2023-09-23T02:08:52.667Z,228
2023-09-23T02:09:25.543Z,122
2023-09-23T02:09:56.778Z,129
2023-09-23T02:10:29.978Z,122
2023-09-23T02:11:00.738Z,122
2023-09-23T02:11:33.606Z,233
2023-09-23T02:12:04.580Z,229
2023-09-23T02:12:38.021Z,229
2023-09-23T02:13:08.725Z,205
2023-09-23T02:13:41.686Z,222
2023-09-23T02:14:12.704Z,167
2023-09-23T02:14:45.511Z,167
2023-09-23T02:15:17.820Z,178
2023-09-23T02:15:49.704Z,185
2023-09-23T02:16:20.745Z,177
2023-09-23T02:16:53.690Z,186
2023-09-23T02:17:24.832Z,229
2023-09-23T02:17:57.747Z,229
2023-09-23T02:18:28.889Z,229
2023-09-23T02:19:01.731Z,229
2023-09-23T02:19:32.630Z,229
2023-09-23T02:20:05.801Z,142
2023-09-23T02:20:36.764Z,184
2023-09-23T02:21:09.546Z,226
2023-09-23T02:21:40.739Z,184
2023-09-23T02:22:13.772Z,226
2023-09-23T02:22:44.856Z,226
2023-09-23T02:23:19.089Z,186
2023-09-23T02:23:48.678Z,207
2023-09-23T02:24:21.608Z,207
2023-09-23T02:24:52.849Z,200
2023-09-23T02:25:26.438Z,200
2023-09-23T02:25:56.786Z,250
2023-09-23T02:26:29.717Z,236
2023-09-23T02:27:00.692Z,236
2023-09-23T02:27:33.759Z,236
2023-09-23T02:28:04.733Z,261
2023-09-23T02:28:38.038Z,256
2023-09-23T02:29:08.645Z,256
2023-09-23T02:29:41.691Z,256
2023-09-23T02:30:13.976Z,209
2023-09-23T02:30:46.642Z,245
2023-09-23T02:31:16.773Z,250
2023-09-23T02:31:49.575Z,245
2023-09-23T02:32:20.883Z,244
2023-09-23T02:32:53.593Z,244
2023-09-23T02:33:24.703Z,244
2023-09-23T02:33:57.745Z,257
2023-09-23T02:34:28.680Z,233
2023-09-23T02:35:02.244Z,233
2023-09-23T02:35:32.761Z,233
2023-09-23T02:36:05.470Z,257
2023-09-23T02:36:36.728Z,250
2023-09-23T02:37:09.723Z,257
2023-09-23T02:37:40.934Z,250
2023-09-23T02:38:13.654Z,254
2023-09-23T02:38:45.020Z,254
2023-09-23T02:39:17.863Z,254
2023-09-23T02:39:48.644Z,239
2023-09-23T02:40:22.011Z,254
2023-09-23T02:40:52.753Z,227
2023-09-23T02:41:25.712Z,235
2023-09-23T02:41:56.708Z,227
2023-09-23T02:42:30.651Z,215
2023-09-23T02:43:00.844Z,254
2023-09-23T02:43:33.524Z,235
2023-09-23T02:44:04.752Z,235
2023-09-23T02:44:37.902Z,244
2023-09-23T02:45:09.811Z,231
2023-09-23T02:45:41.951Z,231
2023-09-23T02:46:12.739Z,231
2023-09-23T02:46:45.787Z,231
2023-09-23T02:47:16.746Z,231
2023-09-23T02:47:49.623Z,231
2023-09-23T02:48:20.837Z,231
2023-09-23T02:48:53.588Z,231
2023-09-23T02:49:24.639Z,222
2023-09-23T02:49:57.841Z,222
2023-09-23T02:50:29.280Z,222
2023-09-23T02:51:01.733Z,231
2023-09-23T02:51:32.686Z,224
2023-09-23T02:52:05.881Z,224
2023-09-23T02:52:36.790Z,224
2023-09-23T02:53:09.614Z,224
2023-09-23T02:53:40.728Z,257
2023-09-23T02:54:13.656Z,224
2023-09-23T02:54:44.639Z,224
2023-09-23T02:55:18.047Z,257
2023-09-23T02:55:48.837Z,224
2023-09-23T02:56:21.530Z,218
2023-09-23T02:56:52.639Z,224
2023-09-23T02:57:25.863Z,224
2023-09-23T02:57:56.869Z,224
2023-09-23T02:58:29.621Z,224
2023-09-23T02:59:00.727Z,224
2023-09-23T02:59:33.564Z,224
2023-09-23T03:00:06.442Z,224
2023-09-23T03:00:37.686Z,224
2023-09-23T03:01:08.797Z,245
2023-09-23T03:01:41.775Z,227
2023-09-23T03:02:12.824Z,225
2023-09-23T03:02:45.863Z,225
2023-09-23T03:03:16.859Z,225
2023-09-23T03:03:49.638Z,221
2023-09-23T03:04:20.716Z,221
2023-09-23T03:04:53.826Z,227
2023-09-23T03:05:24.945Z,221
2023-09-23T03:05:57.627Z,221
2023-09-23T03:06:28.720Z,227
2023-09-23T03:07:01.869Z,227
2023-09-23T03:07:33.618Z,227
2023-09-23T03:08:05.753Z,248
2023-09-23T03:08:36.829Z,252
2023-09-23T03:09:09.544Z,252
2023-09-23T03:09:40.764Z,261
2023-09-23T03:10:13.971Z,233
2023-09-23T03:10:44.922Z,233
2023-09-23T03:11:17.613Z,260
2023-09-23T03:11:48.764Z,260
2023-09-23T03:12:21.679Z,200
2023-09-23T03:12:52.684Z,207
2023-09-23T03:13:25.670Z,246
2023-09-23T03:13:56.762Z,230
2023-09-23T03:14:29.712Z,230
2023-09-23T03:15:02.182Z,230
2023-09-23T03:15:33.869Z,235
2023-09-23T03:16:04.996Z,254
2023-09-23T03:16:37.575Z,254
2023-09-23T03:17:08.852Z,254
2023-09-23T03:17:41.769Z,241
2023-09-23T03:18:12.865Z,241
2023-09-23T03:18:45.885Z,241
2023-09-23T03:19:16.690Z,241
2023-09-23T03:19:49.784Z,241
2023-09-23T03:20:21.103Z,241
2023-09-23T03:20:53.582Z,236
2023-09-23T03:21:24.786Z,223
2023-09-23T03:21:57.752Z,241
2023-09-23T03:22:28.754Z,243
2023-09-23T03:23:01.766Z,252
2023-09-23T03:23:32.884Z,243
2023-09-23T03:24:05.594Z,243
2023-09-23T03:24:36.710Z,243
2023-09-23T03:25:09.977Z,243
2023-09-23T03:25:40.874Z,243
2023-09-23T03:26:13.589Z,243
2023-09-23T03:26:44.715Z,243
2023-09-23T03:27:17.783Z,243
2023-09-23T03:27:48.684Z,241
2023-09-23T03:28:21.696Z,248
2023-09-23T03:28:52.830Z,255
2023-09-23T03:29:25.700Z,255
2023-09-23T03:29:56.713Z,255
2023-09-23T03:30:30.826Z,255
2023-09-23T03:31:00.872Z,255
2023-09-23T03:31:33.665Z,255
2023-09-23T03:32:04.814Z,255
2023-09-23T03:32:38.044Z,241
2023-09-23T03:33:08.750Z,234
2023-09-23T03:33:41.498Z,271
2023-09-23T03:34:12.813Z,231
2023-09-23T03:34:45.877Z,231
2023-09-23T03:35:17.183Z,241
2023-09-23T03:35:49.568Z,235
2023-09-23T03:36:20.779Z,240
2023-09-23T03:36:53.647Z,240
2023-09-23T03:37:24.736Z,255
2023-09-23T03:37:57.624Z,255
2023-09-23T03:38:29.663Z,220
2023-09-23T03:39:01.589Z,220
2023-09-23T03:39:32.725Z,220
2023-09-23T03:40:05.931Z,233
2023-09-23T03:40:36.638Z,250
2023-09-23T03:41:09.711Z,233
2023-09-23T03:41:40.841Z,231
2023-09-23T03:42:13.998Z,231
2023-09-23T03:42:44.696Z,219
2023-09-23T03:43:17.570Z,237
2023-09-23T03:43:48.829Z,231
2023-09-23T03:44:21.554Z,231
2023-09-23T03:44:52.706Z,259
2023-09-23T03:45:27.682Z,223
2023-09-23T03:45:56.861Z,223
2023-09-23T03:46:29.864Z,237
2023-09-23T03:47:00.826Z,259
2023-09-23T03:47:33.827Z,260
2023-09-23T03:48:04.710Z,260
2023-09-23T03:48:37.884Z,259
2023-09-23T03:49:08.788Z,253
2023-09-23T03:49:42.788Z,253
2023-09-23T03:50:13.015Z,253
2023-09-23T03:50:45.590Z,278
2023-09-23T03:51:16.877Z,263
2023-09-23T03:51:49.480Z,246
2023-09-23T03:52:20.742Z,244
2023-09-23T03:52:53.745Z,244
2023-09-23T03:53:25.083Z,244
2023-09-23T03:53:57.547Z,244
2023-09-23T03:54:29.100Z,244
2023-09-23T03:55:02.794Z,244
2023-09-23T03:55:32.663Z,244
2023-09-23T03:56:05.712Z,254
2023-09-23T03:56:36.806Z,265
2023-09-23T03:57:09.754Z,254
2023-09-23T03:57:40.667Z,248
2023-09-23T03:58:13.644Z,248
2023-09-23T03:58:45.293Z,248
2023-09-23T03:59:17.675Z,252
2023-09-23T03:59:48.802Z,252
2023-09-23T04:00:22.897Z,252
2023-09-23T04:00:52.915Z,252
2023-09-23T04:01:25.752Z,252
2023-09-23T04:01:56.806Z,252
2023-09-23T04:02:29.802Z,252
2023-09-23T04:03:00.720Z,252
2023-09-23T04:03:33.644Z,252
2023-09-23T04:04:04.847Z,252
2023-09-23T04:04:37.622Z,252
2023-09-23T04:05:09.073Z,252
2023-09-23T04:05:41.653Z,260
2023-09-23T04:06:12.888Z,252
2023-09-23T04:06:45.650Z,252
2023-09-23T04:07:16.767Z,288
2023-09-23T04:07:49.743Z,258
2023-09-23T04:08:20.646Z,253
2023-09-23T04:08:53.611Z,253
2023-09-23T04:09:24.804Z,280
2023-09-23T04:09:57.566Z,280
2023-09-23T04:10:29.135Z,258
2023-09-23T04:11:01.829Z,258
2023-09-23T04:11:32.850Z,280
2023-09-23T04:12:05.828Z,271
2023-09-23T04:12:36.736Z,271
2023-09-23T04:13:09.661Z,280
2023-09-23T04:13:40.747Z,240
2023-09-23T04:14:13.737Z,266
2023-09-23T04:14:44.876Z,264
2023-09-23T04:15:18.781Z,264
2023-09-23T04:15:48.951Z,257
2023-09-23T04:16:21.747Z,257
2023-09-23T04:16:52.955Z,264
2023-09-23T04:17:25.883Z,264
2023-09-23T04:17:56.961Z,264
2023-09-23T04:18:29.712Z,264
2023-09-23T04:19:00.781Z,264
2023-09-23T04:19:33.678Z,264
2023-09-23T04:20:05.129Z,264
2023-09-23T04:20:38.030Z,253
2023-09-23T04:21:08.725Z,262
2023-09-23T04:21:41.713Z,225
2023-09-23T04:22:12.867Z,253
2023-09-23T04:22:46.910Z,253
2023-09-23T04:23:16.785Z,261
2023-09-23T04:23:49.725Z,264
2023-09-23T04:24:20.886Z,257
2023-09-23T04:24:53.565Z,262
2023-09-23T04:25:25.139Z,281
2023-09-23T04:25:57.653Z,261
2023-09-23T04:26:28.691Z,261
2023-09-23T04:27:01.650Z,261
2023-09-23T04:27:32.828Z,265
2023-09-23T04:28:05.917Z,265
2023-09-23T04:28:36.720Z,265
2023-09-23T04:29:09.684Z,261
2023-09-23T04:29:40.856Z,253
2023-09-23T04:30:14.854Z,264
2023-09-23T04:30:45.024Z,259
2023-09-23T04:31:17.640Z,259
2023-09-23T04:31:48.939Z,259
2023-09-23T04:32:21.775Z,259
2023-09-23T04:32:52.877Z,253
2023-09-23T04:33:25.896Z,253
2023-09-23T04:33:56.751Z,253
2023-09-23T04:34:29.817Z,253
2023-09-23T04:35:01.306Z,253
2023-09-23T04:35:33.546Z,281
2023-09-23T04:36:04.830Z,265
2023-09-23T04:36:37.940Z,265
2023-09-23T04:37:08.930Z,242
2023-09-23T04:37:41.789Z,242
2023-09-23T04:38:12.894Z,233
2023-09-23T04:38:45.927Z,248
2023-09-23T04:39:16.618Z,242
2023-09-23T04:39:50.594Z,248
2023-09-23T04:40:21.216Z,242
2023-09-23T04:40:53.747Z,242
2023-09-23T04:41:24.796Z,242
2023-09-23T04:41:57.747Z,242
2023-09-23T04:42:28.911Z,242
2023-09-23T04:43:01.619Z,242
2023-09-23T04:43:32.767Z,213
2023-09-23T04:44:05.904Z,213
2023-09-23T04:44:36.859Z,187
2023-09-23T04:45:10.973Z,249
2023-09-23T04:45:40.951Z,217
2023-09-23T04:46:13.745Z,217
2023-09-23T04:46:44.681Z,240
2023-09-23T04:47:17.869Z,232
2023-09-23T04:47:48.803Z,200
2023-09-23T04:48:21.614Z,249
2023-09-23T04:48:52.732Z,179
2023-09-23T04:49:26.640Z,216
2023-09-23T04:49:56.820Z,216
2023-09-23T04:50:30.089Z,216
2023-09-23T04:51:00.822Z,217
2023-09-23T04:51:34.553Z,226
2023-09-23T04:52:04.796Z,241
2023-09-23T04:52:38.048Z,271
2023-09-23T04:53:08.977Z,236
2023-09-23T04:53:41.853Z,236
2023-09-23T04:54:12.710Z,245
2023-09-23T04:54:45.793Z,236
2023-09-23T04:55:17.097Z,236
2023-09-23T04:55:49.706Z,236
2023-09-23T04:56:20.822Z,235
2023-09-23T04:56:53.725Z,264
2023-09-23T04:57:24.819Z,235
2023-09-23T04:57:58.778Z,235
2023-09-23T04:58:28.788Z,229
2023-09-23T04:59:01.985Z,229
2023-09-23T04:59:32.725Z,229
2023-09-23T05:00:07.101Z,229
2023-09-23T05:00:36.829Z,229
2023-09-23T05:01:09.735Z,229
2023-09-23T05:01:40.725Z,229
2023-09-23T05:02:13.843Z,230
2023-09-23T05:02:44.860Z,229
2023-09-23T05:03:17.567Z,234
2023-09-23T05:03:48.748Z,234
2023-09-23T05:04:22.701Z,234
2023-09-23T05:04:53.192Z,234
2023-09-23T05:05:26.346Z,234
2023-09-23T05:05:56.938Z,234
2023-09-23T05:06:30.003Z,234
2023-09-23T05:07:00.977Z,234
2023-09-23T05:07:34.759Z,234
2023-09-23T05:08:05.088Z,234
2023-09-23T05:08:37.883Z,234
2023-09-23T05:09:08.978Z,247
2023-09-23T05:09:41.863Z,226
2023-09-23T05:10:13.376Z,226
2023-09-23T05:10:45.794Z,234
2023-09-23T05:11:17.039Z,226
2023-09-23T05:11:49.897Z,265
2023-09-23T05:12:20.834Z,226
2023-09-23T05:12:53.903Z,226
2023-09-23T05:13:24.990Z,230
2023-09-23T05:13:57.900Z,234
2023-09-23T05:14:28.941Z,154
2023-09-23T05:15:03.507Z,226
2023-09-23T05:15:33.186Z,226
2023-09-23T05:16:05.688Z,233
2023-09-23T05:16:36.950Z,233
2023-09-23T05:17:10.037Z,233
2023-09-23T05:17:41.125Z,233
2023-09-23T05:18:13.794Z,233
2023-09-23T05:18:45.364Z,233
2023-09-23T05:19:19.072Z,233
2023-09-23T05:19:48.961Z,233
2023-09-23T05:20:22.208Z,233
2023-09-23T05:20:53.062Z,233
2023-09-23T05:21:26.223Z,233
2023-09-23T05:21:56.891Z,154
2023-09-23T05:22:29.983Z,162
2023-09-23T05:23:01.126Z,195
2023-09-23T05:23:33.828Z,195
2023-09-23T05:24:04.985Z,170
2023-09-23T05:24:37.757Z,170
2023-09-23T05:25:09.473Z,170
2023-09-23T05:25:41.757Z,170
2023-09-23T05:26:13.116Z,169
2023-09-23T05:26:46.073Z,172
2023-09-23T05:27:16.891Z,169
2023-09-23T05:27:49.743Z,172
2023-09-23T05:28:20.994Z,172
2023-09-23T05:28:54.083Z,172
2023-09-23T05:29:24.935Z,164
2023-09-23T05:29:57.841Z,164
2023-09-23T05:30:30.116Z,157
2023-09-23T05:31:03.060Z,157
2023-09-23T05:31:33.109Z,164
2023-09-23T05:32:06.081Z,129
2023-09-23T05:32:36.949Z,166
2023-09-23T05:33:09.959Z,157
2023-09-23T05:33:41.083Z,157
2023-09-23T05:34:15.034Z,157
2023-09-23T05:35:18.377Z,157
2023-09-23T05:35:49.139Z,157
2023-09-23T05:36:21.825Z,157
2023-09-23T05:36:53.014Z,157
2023-09-23T05:37:26.103Z,154
2023-09-23T05:37:57.058Z,157
2023-09-23T05:38:29.999Z,148
2023-09-23T05:39:01.099Z,157
2023-09-23T05:39:33.969Z,164
2023-09-23T05:40:05.277Z,150
2023-09-23T05:40:38.979Z,154
2023-09-23T05:41:09.195Z,154
2023-09-23T05:41:43.768Z,157
2023-09-23T05:42:13.011Z,154
2023-09-23T05:42:46.205Z,154
2023-09-23T05:43:16.922Z,146
2023-09-23T05:43:49.824Z,167
2023-09-23T05:44:21.064Z,157
2023-09-23T05:44:53.952Z,149
2023-09-23T05:45:26.955Z,149
2023-09-23T05:45:57.997Z,193
2023-09-23T05:46:29.254Z,161
2023-09-23T05:47:04.163Z,157
2023-09-23T05:47:32.996Z,161
2023-09-23T05:48:06.176Z,161
2023-09-23T05:48:37.084Z,161
2023-09-23T05:49:09.713Z,170
2023-09-23T05:49:41.034Z,170
2023-09-23T05:50:14.385Z,170
2023-09-23T05:50:44.946Z,169
2023-09-23T05:51:17.830Z,169
2023-09-23T05:51:49.059Z,169
2023-09-23T05:52:23.109Z,169
2023-09-23T05:52:53.027Z,169
2023-09-23T05:53:25.939Z,169
2023-09-23T05:53:57.084Z,169
2023-09-23T05:54:30.407Z,169
2023-09-23T05:55:02.054Z,169
2023-09-23T05:55:33.805Z,169
2023-09-23T05:56:05.188Z,169
2023-09-23T05:56:37.959Z,169
2023-09-23T05:57:09.059Z,169
2023-09-23T05:57:42.181Z,163
2023-09-23T05:58:12.924Z,169
2023-09-23T05:58:45.910Z,169
2023-09-23T05:59:17.028Z,231
2023-09-23T05:59:51.845Z,253
2023-09-23T06:00:22.123Z,253
2023-09-23T06:00:53.886Z,254
2023-09-23T06:01:25.247Z,254
2023-09-23T06:01:57.924Z,254
2023-09-23T06:02:29.110Z,231
2023-09-23T06:03:03.192Z,231
2023-09-23T06:03:33.168Z,231
2023-09-23T06:04:05.945Z,231
2023-09-23T06:04:37.019Z,231
2023-09-23T06:05:10.159Z,254
2023-09-23T06:05:40.963Z,254
2023-09-23T06:06:13.814Z,254
2023-09-23T06:06:45.128Z,254
2023-09-23T06:07:18.215Z,254
2023-09-23T06:07:49.040Z,254
2023-09-23T06:08:21.935Z,254
2023-09-23T06:08:53.072Z,259
2023-09-23T06:09:26.889Z,259
2023-09-23T06:09:56.949Z,259
2023-09-23T06:10:30.377Z,259
2023-09-23T06:11:01.218Z,259
2023-09-23T06:11:33.772Z,259
2023-09-23T06:12:05.022Z,259
2023-09-23T06:12:38.235Z,259
2023-09-23T06:13:08.998Z,277
2023-09-23T06:13:41.905Z,259
2023-09-23T06:14:13.172Z,259
2023-09-23T06:14:46.044Z,259
2023-09-23T06:15:18.158Z,259
2023-09-23T06:15:50.096Z,265
2023-09-23T06:16:21.227Z,265
2023-09-23T06:16:53.920Z,265
2023-09-23T06:17:25.072Z,265
2023-09-23T06:17:58.183Z,251
2023-09-23T06:18:28.993Z,251
2023-09-23T06:19:01.958Z,251
2023-09-23T06:19:33.012Z,251
2023-09-23T06:20:06.121Z,251
2023-09-23T06:20:36.994Z,151
2023-09-23T06:21:09.979Z,151
2023-09-23T06:21:41.156Z,151
2023-09-23T06:22:14.061Z,151
2023-09-23T06:22:45.014Z,151
2023-09-23T06:23:17.884Z,151
2023-09-23T06:23:49.280Z,137
2023-09-23T06:24:21.860Z,242
2023-09-23T06:24:53.038Z,242
2023-09-23T06:25:26.435Z,137
2023-09-23T06:25:57.156Z,137
2023-09-23T06:26:30.008Z,137
2023-09-23T06:27:01.176Z,137
2023-09-23T06:27:33.894Z,133
2023-09-23T06:28:04.940Z,133
2023-09-23T06:28:37.945Z,133
2023-09-23T06:29:09.136Z,133
2023-09-23T06:29:41.879Z,133
2023-09-23T06:30:14.107Z,133
2023-09-23T06:30:46.182Z,133
2023-09-23T06:31:16.933Z,133
2023-09-23T06:31:49.944Z,133
2023-09-23T06:32:20.997Z,133
2023-09-23T06:32:53.979Z,151
2023-09-23T06:33:25.020Z,143
2023-09-23T06:33:57.813Z,143
2023-09-23T06:34:29.173Z,143
2023-09-23T06:35:04.004Z,143
2023-09-23T06:35:33.051Z,137
2023-09-23T06:36:05.968Z,137
2023-09-23T06:36:36.898Z,137
2023-09-23T06:37:10.910Z,137
2023-09-23T06:37:41.102Z,143
2023-09-23T06:38:13.949Z,143
2023-09-23T06:38:45.033Z,143
2023-09-23T06:39:17.814Z,143
2023-09-23T06:39:49.175Z,289
2023-09-23T06:40:23.045Z,251
2023-09-23T06:40:53.152Z,251
2023-09-23T06:41:25.939Z,251
2023-09-23T06:41:57.032Z,251
2023-09-23T06:42:30.148Z,251
2023-09-23T06:43:01.068Z,251
2023-09-23T06:43:33.943Z,251
2023-09-23T06:44:05.055Z,251
2023-09-23T06:44:38.147Z,251
2023-09-23T06:45:10.365Z,251
2023-09-23T06:45:42.120Z,251
2023-09-23T06:46:13.433Z,251
2023-09-23T06:46:46.484Z,251
2023-09-23T06:47:17.365Z,251
2023-09-23T06:47:50.369Z,251
2023-09-23T06:48:21.466Z,251
2023-09-23T06:48:54.171Z,268
2023-09-23T06:49:25.360Z,273
2023-09-23T06:49:58.244Z,273
2023-09-23T06:50:29.696Z,177
2023-09-23T06:51:02.344Z,177
2023-09-23T06:51:33.350Z,177
2023-09-23T06:52:06.425Z,177
2023-09-23T06:52:37.258Z,177
2023-09-23T06:53:10.209Z,177
2023-09-23T06:53:42.270Z,177
2023-09-23T06:54:14.110Z,191
2023-09-23T06:54:45.487Z,203
2023-09-23T06:55:18.659Z,203
2023-09-23T06:55:49.467Z,203
2023-09-23T06:56:22.161Z,192
2023-09-23T06:56:53.383Z,192
2023-09-23T06:57:27.231Z,192
2023-09-23T06:57:57.314Z,200
2023-09-23T06:58:29.849Z,200
2023-09-23T06:59:01.140Z,200
2023-09-23T06:59:34.012Z,200
2023-09-23T07:00:06.541Z,200
2023-09-23T07:00:37.829Z,200
2023-09-23T07:01:09.551Z,273
2023-09-23T07:01:42.123Z,273
2023-09-23T07:02:13.460Z,227
2023-09-23T07:02:46.493Z,280
2023-09-23T07:03:17.685Z,271
2023-09-23T07:03:50.344Z,271
2023-09-23T07:04:21.563Z,271
2023-09-23T07:04:54.293Z,280
2023-09-23T07:05:25.748Z,271
2023-09-23T07:05:58.076Z,271
2023-09-23T07:06:29.363Z,280
2023-09-23T07:07:02.164Z,280
2023-09-23T07:07:33.407Z,274
2023-09-23T07:08:07.340Z,274
2023-09-23T07:08:37.415Z,280
2023-09-23T07:09:10.164Z,280
2023-09-23T07:09:41.308Z,280
2023-09-23T07:10:17.215Z,280
2023-09-23T07:10:45.416Z,280
2023-09-23T07:11:18.536Z,274
2023-09-23T07:11:49.442Z,274
2023-09-23T07:12:22.138Z,280
2023-09-23T07:12:53.318Z,216
2023-09-23T07:13:26.414Z,276
2023-09-23T07:13:57.298Z,276
2023-09-23T07:14:30.278Z,216
2023-09-23T07:15:03.024Z,216
2023-09-23T07:15:34.511Z,216
2023-09-23T07:16:05.408Z,216
2023-09-23T07:16:38.504Z,251
2023-09-23T07:17:09.612Z,214
2023-09-23T07:17:42.446Z,214
2023-09-23T07:18:13.432Z,214
2023-09-23T07:18:46.158Z,214
2023-09-23T07:19:17.446Z,214
2023-09-23T07:19:50.247Z,214
2023-09-23T07:20:21.974Z,214